Westfield, Wisconsin
Current Conditions -  °F | °C
As of 7:32 AM on Saturday 20 Dec 2014 (Local Time) from KY50 Reporting Station
Haze Haze  
Wind Chill: 27°   Ceiling: 3100
Heat Index: 27°   Visibility: 5mi
Dew Point: 25°   Wind: 0mph
Humidity: 93%   Direction: NA
Pressure: 30.25"   Gusts: NA
Location:  43.88°N, 89.49°W
Report Text: KY50 201332Z AUTO 00000KT 5SM BR FEW025 OVC031 M03/M04 A3025 RMK AO2 TSNO
Loading
Personal Weather Stations






























Interactive Weather Map New forecast layout! Learn more

10-Day Weather Forecast

Advertisements
Track Severe Weather on mobile